sensor_id;sensor_type;location;lat;lon;timestamp;P1;durP1;ratioP1;P2;durP2;ratioP2
50789;SDS011;37287;47.554;7.844;2023-02-11T00:01:31;23.05;;;14.25;;
50789;SDS011;37287;47.554;7.844;2023-02-11T00:04:00;27.48;;;18.92;;
50789;SDS011;37287;47.554;7.844;2023-02-11T00:06:33;25.88;;;16.02;;
50789;SDS011;37287;47.554;7.844;2023-02-11T00:09:01;30.42;;;15.88;;
50789;SDS011;37287;47.554;7.844;2023-02-11T00:11:28;32.08;;;17.17;;
50789;SDS011;37287;47.554;7.844;2023-02-11T00:14:01;23.83;;;14.18;;
50789;SDS011;37287;47.554;7.844;2023-02-11T00:16:30;47.13;;;27.25;;
50789;SDS011;37287;47.554;7.844;2023-02-11T00:18:58;37.55;;;21.83;;
50789;SDS011;37287;47.554;7.844;2023-02-11T00:24:00;44.35;;;25.80;;
50789;SDS011;37287;47.554;7.844;2023-02-11T00:26:31;41.15;;;22.08;;
50789;SDS011;37287;47.554;7.844;2023-02-11T00:28:59;34.70;;;20.40;;
50789;SDS011;37287;47.554;7.844;2023-02-11T00:31:26;41.03;;;22.05;;
50789;SDS011;37287;47.554;7.844;2023-02-11T00:33:53;33.33;;;18.73;;
50789;SDS011;37287;47.554;7.844;2023-02-11T00:36:27;40.17;;;21.15;;
50789;SDS011;37287;47.554;7.844;2023-02-11T00:38:55;34.42;;;19.13;;
50789;SDS011;37287;47.554;7.844;2023-02-11T00:41:22;38.72;;;22.15;;
50789;SDS011;37287;47.554;7.844;2023-02-11T00:43:50;41.92;;;24.13;;
50789;SDS011;37287;47.554;7.844;2023-02-11T00:46:17;38.90;;;23.35;;
50789;SDS011;37287;47.554;7.844;2023-02-11T00:48:43;37.28;;;21.27;;
50789;SDS011;37287;47.554;7.844;2023-02-11T00:51:10;42.97;;;23.40;;
50789;SDS011;37287;47.554;7.844;2023-02-11T00:53:37;33.65;;;19.40;;
50789;SDS011;37287;47.554;7.844;2023-02-11T00:56:04;38.40;;;22.30;;
50789;SDS011;37287;47.554;7.844;2023-02-11T00:58:32;40.15;;;23.58;;
50789;SDS011;37287;47.554;7.844;2023-02-11T01:00:59;43.28;;;25.73;;
50789;SDS011;37287;47.554;7.844;2023-02-11T01:03:26;44.75;;;24.67;;
50789;SDS011;37287;47.554;7.844;2023-02-11T01:05:55;40.72;;;23.35;;
50789;SDS011;37287;47.554;7.844;2023-02-11T01:08:23;47.67;;;25.48;;
50789;SDS011;37287;47.554;7.844;2023-02-11T01:10:57;35.50;;;21.25;;
50789;SDS011;37287;47.554;7.844;2023-02-11T01:13:28;39.22;;;22.90;;
50789;SDS011;37287;47.554;7.844;2023-02-11T01:15:55;31.92;;;19.35;;
50789;SDS011;37287;47.554;7.844;2023-02-11T01:18:23;32.88;;;18.85;;
50789;SDS011;37287;47.554;7.844;2023-02-11T01:20:52;36.05;;;20.90;;
50789;SDS011;37287;47.554;7.844;2023-02-11T01:23:19;45.92;;;25.73;;
50789;SDS011;37287;47.554;7.844;2023-02-11T01:25:46;48.67;;;26.20;;
50789;SDS011;37287;47.554;7.844;2023-02-11T01:28:20;47.60;;;26.58;;
50789;SDS011;37287;47.554;7.844;2023-02-11T01:30:51;39.85;;;25.00;;
50789;SDS011;37287;47.554;7.844;2023-02-11T01:33:19;42.90;;;25.98;;
50789;SDS011;37287;47.554;7.844;2023-02-11T01:35:48;36.17;;;21.90;;
50789;SDS011;37287;47.554;7.844;2023-02-11T01:38:19;36.25;;;20.35;;
50789;SDS011;37287;47.554;7.844;2023-02-11T01:40:52;38.42;;;23.35;;
50789;SDS011;37287;47.554;7.844;2023-02-11T01:43:22;31.55;;;18.58;;
50789;SDS011;37287;47.554;7.844;2023-02-11T01:48:29;38.78;;;23.45;;
50789;SDS011;37287;47.554;7.844;2023-02-11T01:51:06;40.05;;;25.95;;
50789;SDS011;37287;47.554;7.844;2023-02-11T01:53:37;38.13;;;23.45;;
50789;SDS011;37287;47.554;7.844;2023-02-11T01:56:24;42.78;;;25.33;;
50789;SDS011;37287;47.554;7.844;2023-02-11T01:59:14;51.30;;;26.50;;
50789;SDS011;37287;47.554;7.844;2023-02-11T02:07:10;45.80;;;24.95;;
50789;SDS011;37287;47.554;7.844;2023-02-11T02:09:44;51.60;;;30.15;;
50789;SDS011;37287;47.554;7.844;2023-02-11T02:12:17;49.33;;;29.83;;
50789;SDS011;37287;47.554;7.844;2023-02-11T02:14:46;46.63;;;26.35;;
50789;SDS011;37287;47.554;7.844;2023-02-11T02:17:18;45.88;;;25.80;;
50789;SDS011;37287;47.554;7.844;2023-02-11T02:20:12;45.83;;;26.65;;
50789;SDS011;37287;47.554;7.844;2023-02-11T02:34:25;45.17;;;25.75;;
50789;SDS011;37287;47.554;7.844;2023-02-11T02:37:23;64.20;;;36.53;;
50789;SDS011;37287;47.554;7.844;2023-02-11T02:40:05;45.28;;;26.40;;
50789;SDS011;37287;47.554;7.844;2023-02-11T02:42:37;45.75;;;27.90;;
50789;SDS011;37287;47.554;7.844;2023-02-11T02:45:06;49.13;;;27.30;;
50789;SDS011;37287;47.554;7.844;2023-02-11T02:47:34;49.17;;;28.50;;
50789;SDS011;37287;47.554;7.844;2023-02-11T02:50:03;42.20;;;24.35;;
50789;SDS011;37287;47.554;7.844;2023-02-11T03:03:29;45.38;;;25.50;;
50789;SDS011;37287;47.554;7.844;2023-02-11T03:06:34;48.65;;;28.20;;
50789;SDS011;37287;47.554;7.844;2023-02-11T03:09:05;43.78;;;25.23;;
50789;SDS011;37287;47.554;7.844;2023-02-11T03:11:36;40.28;;;23.85;;
50789;SDS011;37287;47.554;7.844;2023-02-11T03:14:06;37.53;;;22.30;;
50789;SDS011;37287;47.554;7.844;2023-02-11T03:16:38;39.42;;;21.08;;
50789;SDS011;37287;47.554;7.844;2023-02-11T03:19:12;42.72;;;23.98;;
50789;SDS011;37287;47.554;7.844;2023-02-11T03:21:45;33.83;;;21.25;;
50789;SDS011;37287;47.554;7.844;2023-02-11T03:24:16;41.83;;;24.60;;
50789;SDS011;37287;47.554;7.844;2023-02-11T03:26:52;40.13;;;24.35;;
50789;SDS011;37287;47.554;7.844;2023-02-11T03:29:34;41.78;;;25.40;;
50789;SDS011;37287;47.554;7.844;2023-02-11T03:32:11;61.08;;;31.00;;
50789;SDS011;37287;47.554;7.844;2023-02-11T03:35:16;36.85;;;22.95;;
50789;SDS011;37287;47.554;7.844;2023-02-11T03:37:50;35.05;;;21.33;;
50789;SDS011;37287;47.554;7.844;2023-02-11T03:40:26;46.38;;;26.42;;
50789;SDS011;37287;47.554;7.844;2023-02-11T03:43:08;46.38;;;29.60;;
50789;SDS011;37287;47.554;7.844;2023-02-11T03:45:42;42.50;;;26.88;;
50789;SDS011;37287;47.554;7.844;2023-02-11T03:48:13;50.20;;;28.60;;
50789;SDS011;37287;47.554;7.844;2023-02-11T03:50:43;39.75;;;24.20;;
50789;SDS011;37287;47.554;7.844;2023-02-11T03:53:11;37.65;;;22.58;;
50789;SDS011;37287;47.554;7.844;2023-02-11T03:55:45;33.03;;;20.73;;
50789;SDS011;37287;47.554;7.844;2023-02-11T03:58:14;32.20;;;18.55;;
50789;SDS011;37287;47.554;7.844;2023-02-11T04:00:41;33.67;;;21.58;;
50789;SDS011;37287;47.554;7.844;2023-02-11T04:03:11;41.03;;;24.73;;
50789;SDS011;37287;47.554;7.844;2023-02-11T04:05:38;44.47;;;24.40;;
50789;SDS011;37287;47.554;7.844;2023-02-11T04:08:08;46.78;;;26.20;;
50789;SDS011;37287;47.554;7.844;2023-02-11T04:10:39;55.72;;;30.67;;
50789;SDS011;37287;47.554;7.844;2023-02-11T04:13:06;49.53;;;29.33;;
50789;SDS011;37287;47.554;7.844;2023-02-11T04:15:32;42.50;;;24.40;;
50789;SDS011;37287;47.554;7.844;2023-02-11T04:18:05;45.50;;;26.00;;
50789;SDS011;37287;47.554;7.844;2023-02-11T04:20:32;46.30;;;27.88;;
50789;SDS011;37287;47.554;7.844;2023-02-11T04:22:58;53.42;;;33.58;;
50789;SDS011;37287;47.554;7.844;2023-02-11T04:25:27;46.97;;;27.95;;
50789;SDS011;37287;47.554;7.844;2023-02-11T04:27:54;48.70;;;27.83;;
50789;SDS011;37287;47.554;7.844;2023-02-11T04:30:21;34.30;;;19.58;;
50789;SDS011;37287;47.554;7.844;2023-02-11T04:32:54;29.05;;;17.90;;
50789;SDS011;37287;47.554;7.844;2023-02-11T04:35:20;29.98;;;15.98;;
50789;SDS011;37287;47.554;7.844;2023-02-11T04:37:47;44.80;;;23.27;;
50789;SDS011;37287;47.554;7.844;2023-02-11T04:40:13;36.45;;;22.13;;
50789;SDS011;37287;47.554;7.844;2023-02-11T04:42:40;31.63;;;18.77;;
50789;SDS011;37287;47.554;7.844;2023-02-11T04:45:10;33.10;;;19.85;;
50789;SDS011;37287;47.554;7.844;2023-02-11T04:47:38;52.55;;;30.20;;
50789;SDS011;37287;47.554;7.844;2023-02-11T04:50:05;51.63;;;28.27;;
50789;SDS011;37287;47.554;7.844;2023-02-11T04:52:31;36.72;;;21.95;;
50789;SDS011;37287;47.554;7.844;2023-02-11T04:54:58;34.25;;;19.60;;
50789;SDS011;37287;47.554;7.844;2023-02-11T04:57:28;27.77;;;17.27;;
50789;SDS011;37287;47.554;7.844;2023-02-11T04:59:55;35.70;;;18.67;;
50789;SDS011;37287;47.554;7.844;2023-02-11T05:02:21;31.92;;;19.75;;
50789;SDS011;37287;47.554;7.844;2023-02-11T05:04:48;31.98;;;18.00;;
50789;SDS011;37287;47.554;7.844;2023-02-11T05:07:15;31.95;;;18.10;;
50789;SDS011;37287;47.554;7.844;2023-02-11T05:09:43;29.38;;;18.20;;
50789;SDS011;37287;47.554;7.844;2023-02-11T05:12:09;26.35;;;15.25;;
50789;SDS011;37287;47.554;7.844;2023-02-11T05:14:38;24.50;;;15.23;;
50789;SDS011;37287;47.554;7.844;2023-02-11T05:17:06;21.30;;;12.05;;
50789;SDS011;37287;47.554;7.844;2023-02-11T05:19:33;27.15;;;18.85;;
50789;SDS011;37287;47.554;7.844;2023-02-11T05:21:59;31.58;;;19.95;;
50789;SDS011;37287;47.554;7.844;2023-02-11T05:24:29;40.63;;;23.98;;
50789;SDS011;37287;47.554;7.844;2023-02-11T05:26:57;35.80;;;22.30;;
50789;SDS011;37287;47.554;7.844;2023-02-11T05:29:23;34.83;;;21.58;;
50789;SDS011;37287;47.554;7.844;2023-02-11T05:31:50;31.92;;;18.60;;
50789;SDS011;37287;47.554;7.844;2023-02-11T05:34:16;40.80;;;24.10;;
50789;SDS011;37287;47.554;7.844;2023-02-11T05:36:45;28.00;;;17.70;;
50789;SDS011;37287;47.554;7.844;2023-02-11T05:39:12;34.30;;;20.90;;
50789;SDS011;37287;47.554;7.844;2023-02-11T05:41:38;26.25;;;15.45;;
50789;SDS011;37287;47.554;7.844;2023-02-11T05:44:04;24.85;;;14.15;;
50789;SDS011;37287;47.554;7.844;2023-02-11T05:46:39;25.92;;;16.63;;
50789;SDS011;37287;47.554;7.844;2023-02-11T05:49:06;22.73;;;12.50;;
50789;SDS011;37287;47.554;7.844;2023-02-11T05:51:32;23.88;;;14.15;;
50789;SDS011;37287;47.554;7.844;2023-02-11T05:53:59;23.45;;;14.45;;
50789;SDS011;37287;47.554;7.844;2023-02-11T05:56:25;26.10;;;15.80;;
50789;SDS011;37287;47.554;7.844;2023-02-11T05:58:54;32.47;;;20.27;;
50789;SDS011;37287;47.554;7.844;2023-02-11T06:01:20;27.92;;;16.52;;
50789;SDS011;37287;47.554;7.844;2023-02-11T06:03:47;30.27;;;18.77;;
50789;SDS011;37287;47.554;7.844;2023-02-11T06:06:15;45.67;;;27.50;;
50789;SDS011;37287;47.554;7.844;2023-02-11T06:08:42;37.08;;;22.73;;
50789;SDS011;37287;47.554;7.844;2023-02-11T06:11:09;47.78;;;25.17;;
50789;SDS011;37287;47.554;7.844;2023-02-11T06:13:35;46.70;;;25.88;;
50789;SDS011;37287;47.554;7.844;2023-02-11T06:16:04;52.05;;;29.67;;
50789;SDS011;37287;47.554;7.844;2023-02-11T06:18:31;44.13;;;26.40;;
50789;SDS011;37287;47.554;7.844;2023-02-11T06:20:58;70.80;;;38.15;;
50789;SDS011;37287;47.554;7.844;2023-02-11T06:23:27;59.03;;;32.95;;
50789;SDS011;37287;47.554;7.844;2023-02-11T06:25:59;39.60;;;22.77;;
50789;SDS011;37287;47.554;7.844;2023-02-11T06:28:27;44.55;;;26.05;;
50789;SDS011;37287;47.554;7.844;2023-02-11T06:30:57;35.08;;;19.73;;
50789;SDS011;37287;47.554;7.844;2023-02-11T06:33:24;40.00;;;22.45;;
50789;SDS011;37287;47.554;7.844;2023-02-11T06:35:51;37.75;;;22.90;;
50789;SDS011;37287;47.554;7.844;2023-02-11T06:38:18;35.22;;;18.83;;
50789;SDS011;37287;47.554;7.844;2023-02-11T06:40:47;45.92;;;27.33;;
50789;SDS011;37287;47.554;7.844;2023-02-11T06:43:15;41.67;;;25.75;;
50789;SDS011;37287;47.554;7.844;2023-02-11T06:45:42;37.53;;;23.25;;
50789;SDS011;37287;47.554;7.844;2023-02-11T06:48:09;40.88;;;21.88;;
50789;SDS011;37287;47.554;7.844;2023-02-11T06:50:36;35.42;;;22.92;;
50789;SDS011;37287;47.554;7.844;2023-02-11T06:53:05;47.08;;;26.08;;
50789;SDS011;37287;47.554;7.844;2023-02-11T06:55:33;46.60;;;27.88;;
50789;SDS011;37287;47.554;7.844;2023-02-11T06:58:01;69.10;;;34.15;;
50789;SDS011;37287;47.554;7.844;2023-02-11T07:00:39;45.85;;;29.38;;
50789;SDS011;37287;47.554;7.844;2023-02-11T07:03:05;50.35;;;29.92;;
50789;SDS011;37287;47.554;7.844;2023-02-11T07:05:32;38.72;;;21.52;;
50789;SDS011;37287;47.554;7.844;2023-02-11T07:08:06;49.58;;;28.23;;
50789;SDS011;37287;47.554;7.844;2023-02-11T07:10:33;46.97;;;26.60;;
50789;SDS011;37287;47.554;7.844;2023-02-11T07:12:59;41.45;;;25.58;;
50789;SDS011;37287;47.554;7.844;2023-02-11T07:15:27;44.15;;;25.67;;
50789;SDS011;37287;47.554;7.844;2023-02-11T07:17:54;56.80;;;31.10;;
50789;SDS011;37287;47.554;7.844;2023-02-11T07:20:21;56.45;;;31.00;;
50789;SDS011;37287;47.554;7.844;2023-02-11T07:22:47;60.75;;;31.83;;
50789;SDS011;37287;47.554;7.844;2023-02-11T07:25:14;54.50;;;32.08;;
50789;SDS011;37287;47.554;7.844;2023-02-11T07:27:40;46.10;;;26.50;;
50789;SDS011;37287;47.554;7.844;2023-02-11T07:30:09;44.85;;;26.98;;
50789;SDS011;37287;47.554;7.844;2023-02-11T07:32:36;52.00;;;30.00;;
50789;SDS011;37287;47.554;7.844;2023-02-11T07:35:03;55.97;;;29.70;;
50789;SDS011;37287;47.554;7.844;2023-02-11T07:37:33;62.38;;;33.10;;
50789;SDS011;37287;47.554;7.844;2023-02-11T07:40:00;49.92;;;28.77;;
50789;SDS011;37287;47.554;7.844;2023-02-11T07:42:27;46.33;;;22.25;;
50789;SDS011;37287;47.554;7.844;2023-02-11T07:44:53;44.50;;;23.30;;
50789;SDS011;37287;47.554;7.844;2023-02-11T07:47:20;37.38;;;22.95;;
50789;SDS011;37287;47.554;7.844;2023-02-11T07:49:46;33.72;;;19.40;;
50789;SDS011;37287;47.554;7.844;2023-02-11T07:52:15;33.70;;;21.10;;
50789;SDS011;37287;47.554;7.844;2023-02-11T07:54:41;34.20;;;21.73;;
50789;SDS011;37287;47.554;7.844;2023-02-11T19:12:19;24.58;;;14.13;;
50789;SDS011;37287;47.554;7.844;2023-02-11T19:14:46;24.85;;;14.82;;
50789;SDS011;37287;47.554;7.844;2023-02-11T19:17:12;26.27;;;14.73;;
50789;SDS011;37287;47.554;7.844;2023-02-11T19:19:39;20.77;;;13.02;;
50789;SDS011;37287;47.554;7.844;2023-02-11T19:22:06;20.30;;;11.43;;
50789;SDS011;37287;47.554;7.844;2023-02-11T19:24:36;19.02;;;11.43;;
50789;SDS011;37287;47.554;7.844;2023-02-11T19:27:03;22.58;;;12.45;;
50789;SDS011;37287;47.554;7.844;2023-02-11T19:29:37;17.17;;;10.43;;
50789;SDS011;37287;47.554;7.844;2023-02-11T19:32:04;20.13;;;11.82;;
50789;SDS011;37287;47.554;7.844;2023-02-11T19:34:33;25.35;;;14.30;;
50789;SDS011;37287;47.554;7.844;2023-02-11T19:37:06;35.97;;;19.80;;
50789;SDS011;37287;47.554;7.844;2023-02-11T19:39:38;25.48;;;15.15;;
50789;SDS011;37287;47.554;7.844;2023-02-11T19:42:05;25.30;;;13.55;;
50789;SDS011;37287;47.554;7.844;2023-02-11T19:44:36;24.23;;;14.30;;
50789;SDS011;37287;47.554;7.844;2023-02-11T19:47:03;25.85;;;14.18;;
50789;SDS011;37287;47.554;7.844;2023-02-11T19:49:30;22.83;;;13.30;;
50789;SDS011;37287;47.554;7.844;2023-02-11T19:51:56;28.35;;;15.27;;
50789;SDS011;37287;47.554;7.844;2023-02-11T19:54:23;30.25;;;17.38;;
50789;SDS011;37287;47.554;7.844;2023-02-11T19:56:54;26.95;;;14.35;;
50789;SDS011;37287;47.554;7.844;2023-02-11T19:59:24;30.02;;;15.40;;
50789;SDS011;37287;47.554;7.844;2023-02-11T20:01:51;33.35;;;16.67;;
50789;SDS011;37287;47.554;7.844;2023-02-11T20:04:19;28.25;;;15.35;;
50789;SDS011;37287;47.554;7.844;2023-02-11T20:06:47;25.98;;;14.15;;
50789;SDS011;37287;47.554;7.844;2023-02-11T20:09:14;26.70;;;14.50;;
50789;SDS011;37287;47.554;7.844;2023-02-11T20:11:44;25.08;;;14.70;;
50789;SDS011;37287;47.554;7.844;2023-02-11T20:14:11;35.95;;;20.42;;
50789;SDS011;37287;47.554;7.844;2023-02-11T20:16:40;33.08;;;17.98;;
50789;SDS011;37287;47.554;7.844;2023-02-11T20:19:15;32.00;;;17.13;;
50789;SDS011;37287;47.554;7.844;2023-02-11T20:21:46;25.67;;;15.48;;
50789;SDS011;37287;47.554;7.844;2023-02-11T20:24:15;27.90;;;15.40;;
50789;SDS011;37287;47.554;7.844;2023-02-11T20:26:42;28.58;;;14.77;;
50789;SDS011;37287;47.554;7.844;2023-02-11T20:29:13;22.98;;;13.38;;
50789;SDS011;37287;47.554;7.844;2023-02-11T20:31:40;22.00;;;12.35;;
50789;SDS011;37287;47.554;7.844;2023-02-11T20:34:07;31.58;;;17.70;;
50789;SDS011;37287;47.554;7.844;2023-02-11T20:36:35;21.27;;;11.88;;
50789;SDS011;37287;47.554;7.844;2023-02-11T20:39:04;26.58;;;14.18;;
50789;SDS011;37287;47.554;7.844;2023-02-11T20:41:32;28.38;;;15.05;;
50789;SDS011;37287;47.554;7.844;2023-02-11T20:44:11;24.90;;;13.93;;
50789;SDS011;37287;47.554;7.844;2023-02-11T20:46:39;19.88;;;11.32;;
50789;SDS011;37287;47.554;7.844;2023-02-11T20:49:09;20.52;;;10.88;;
50789;SDS011;37287;47.554;7.844;2023-02-11T20:51:37;20.25;;;11.05;;
50789;SDS011;37287;47.554;7.844;2023-02-11T20:54:04;16.27;;;10.13;;
50789;SDS011;37287;47.554;7.844;2023-02-11T20:56:32;18.20;;;10.15;;
50789;SDS011;37287;47.554;7.844;2023-02-11T20:59:01;15.95;;;9.10;;
50789;SDS011;37287;47.554;7.844;2023-02-11T21:01:31;14.75;;;9.10;;
50789;SDS011;37287;47.554;7.844;2023-02-11T21:04:01;17.42;;;10.02;;
50789;SDS011;37287;47.554;7.844;2023-02-11T21:06:30;17.52;;;9.23;;
50789;SDS011;37287;47.554;7.844;2023-02-11T21:09:02;16.90;;;8.98;;
50789;SDS011;37287;47.554;7.844;2023-02-11T21:11:32;15.60;;;9.60;;
50789;SDS011;37287;47.554;7.844;2023-02-11T21:14:01;16.45;;;9.57;;
50789;SDS011;37287;47.554;7.844;2023-02-11T21:16:27;18.23;;;10.65;;
50789;SDS011;37287;47.554;7.844;2023-02-11T21:18:54;14.57;;;8.30;;
50789;SDS011;37287;47.554;7.844;2023-02-11T21:21:22;16.33;;;9.40;;
50789;SDS011;37287;47.554;7.844;2023-02-11T21:23:49;16.30;;;9.13;;
50789;SDS011;37287;47.554;7.844;2023-02-11T21:26:15;16.63;;;9.23;;
50789;SDS011;37287;47.554;7.844;2023-02-11T21:28:42;16.75;;;9.00;;
50789;SDS011;37287;47.554;7.844;2023-02-11T21:31:15;14.32;;;8.57;;
50789;SDS011;37287;47.554;7.844;2023-02-11T21:33:54;13.55;;;8.00;;
50789;SDS011;37287;47.554;7.844;2023-02-11T21:36:22;15.05;;;8.85;;
50789;SDS011;37287;47.554;7.844;2023-02-11T21:38:49;14.95;;;9.38;;
50789;SDS011;37287;47.554;7.844;2023-02-11T21:41:16;16.38;;;9.52;;
50789;SDS011;37287;47.554;7.844;2023-02-11T21:43:44;14.25;;;9.07;;
50789;SDS011;37287;47.554;7.844;2023-02-11T21:46:11;16.95;;;9.35;;
50789;SDS011;37287;47.554;7.844;2023-02-11T21:48:41;18.02;;;9.73;;
50789;SDS011;37287;47.554;7.844;2023-02-11T21:51:10;16.33;;;8.85;;
50789;SDS011;37287;47.554;7.844;2023-02-11T21:53:39;15.82;;;9.43;;
50789;SDS011;37287;47.554;7.844;2023-02-11T21:56:07;16.58;;;9.10;;
50789;SDS011;37287;47.554;7.844;2023-02-11T21:58:38;14.57;;;8.60;;
50789;SDS011;37287;47.554;7.844;2023-02-11T22:01:13;15.23;;;9.20;;
50789;SDS011;37287;47.554;7.844;2023-02-11T22:03:41;15.35;;;8.32;;
50789;SDS011;37287;47.554;7.844;2023-02-11T22:06:08;15.52;;;9.20;;
50789;SDS011;37287;47.554;7.844;2023-02-11T22:08:36;20.77;;;10.80;;
50789;SDS011;37287;47.554;7.844;2023-02-11T22:11:05;18.73;;;9.70;;
50789;SDS011;37287;47.554;7.844;2023-02-11T22:13:33;24.85;;;13.52;;
50789;SDS011;37287;47.554;7.844;2023-02-11T22:16:06;39.17;;;21.20;;
50789;SDS011;37287;47.554;7.844;2023-02-11T22:18:37;38.03;;;19.35;;
50789;SDS011;37287;47.554;7.844;2023-02-11T22:21:15;22.92;;;15.23;;
50789;SDS011;37287;47.554;7.844;2023-02-11T22:23:44;26.60;;;14.20;;
50789;SDS011;37287;47.554;7.844;2023-02-11T22:26:16;25.50;;;13.63;;
50789;SDS011;37287;47.554;7.844;2023-02-11T22:28:44;21.73;;;11.93;;
50789;SDS011;37287;47.554;7.844;2023-02-11T22:31:14;21.23;;;11.73;;
50789;SDS011;37287;47.554;7.844;2023-02-11T22:33:43;17.80;;;10.00;;
50789;SDS011;37287;47.554;7.844;2023-02-11T22:36:21;22.60;;;12.55;;
50789;SDS011;37287;47.554;7.844;2023-02-11T22:38:53;15.02;;;9.40;;
50789;SDS011;37287;47.554;7.844;2023-02-11T22:41:20;16.17;;;9.48;;
50789;SDS011;37287;47.554;7.844;2023-02-11T22:43:47;15.15;;;9.35;;
50789;SDS011;37287;47.554;7.844;2023-02-11T22:46:15;16.05;;;9.68;;
50789;SDS011;37287;47.554;7.844;2023-02-11T22:48:43;16.67;;;9.98;;
50789;SDS011;37287;47.554;7.844;2023-02-11T22:51:11;15.13;;;9.25;;
50789;SDS011;37287;47.554;7.844;2023-02-11T22:53:48;14.50;;;9.20;;
50789;SDS011;37287;47.554;7.844;2023-02-11T22:56:22;20.27;;;9.70;;
50789;SDS011;37287;47.554;7.844;2023-02-11T22:58:50;16.58;;;9.80;;
50789;SDS011;37287;47.554;7.844;2023-02-11T23:01:18;16.23;;;9.32;;
50789;SDS011;37287;47.554;7.844;2023-02-11T23:03:47;19.50;;;10.35;;
50789;SDS011;37287;47.554;7.844;2023-02-11T23:06:14;17.20;;;9.90;;
50789;SDS011;37287;47.554;7.844;2023-02-11T23:08:41;15.07;;;9.55;;
50789;SDS011;37287;47.554;7.844;2023-02-11T23:11:14;14.75;;;9.23;;
50789;SDS011;37287;47.554;7.844;2023-02-11T23:13:45;15.27;;;8.75;;
50789;SDS011;37287;47.554;7.844;2023-02-11T23:16:22;13.63;;;8.63;;
50789;SDS011;37287;47.554;7.844;2023-02-11T23:18:50;17.23;;;9.20;;
50789;SDS011;37287;47.554;7.844;2023-02-11T23:21:19;16.70;;;9.57;;
50789;SDS011;37287;47.554;7.844;2023-02-11T23:23:48;14.68;;;8.63;;
50789;SDS011;37287;47.554;7.844;2023-02-11T23:26:20;13.65;;;7.93;;
50789;SDS011;37287;47.554;7.844;2023-02-11T23:28:48;24.27;;;12.77;;
50789;SDS011;37287;47.554;7.844;2023-02-11T23:31:22;13.98;;;8.15;;
50789;SDS011;37287;47.554;7.844;2023-02-11T23:33:59;13.35;;;8.15;;
50789;SDS011;37287;47.554;7.844;2023-02-11T23:36:27;14.68;;;8.23;;
50789;SDS011;37287;47.554;7.844;2023-02-11T23:38:53;14.07;;;8.52;;
50789;SDS011;37287;47.554;7.844;2023-02-11T23:41:22;12.77;;;7.75;;
50789;SDS011;37287;47.554;7.844;2023-02-11T23:43:52;11.65;;;7.35;;
50789;SDS011;37287;47.554;7.844;2023-02-11T23:46:20;14.55;;;8.25;;
50789;SDS011;37287;47.554;7.844;2023-02-11T23:48:47;17.27;;;10.02;;
50789;SDS011;37287;47.554;7.844;2023-02-11T23:51:14;14.85;;;8.13;;
50789;SDS011;37287;47.554;7.844;2023-02-11T23:53:41;12.82;;;8.15;;
50789;SDS011;37287;47.554;7.844;2023-02-11T23:56:08;12.95;;;7.97;;
50789;SDS011;37287;47.554;7.844;2023-02-11T23:58:38;13.00;;;7.50;;
